sensor_id;sensor_type;location;lat;lon;timestamp;temperature;humidity
40454;DHT22;26160;51.858;4.398;2023-04-24T00:00:22;9.50;99.90
40454;DHT22;26160;51.858;4.398;2023-04-24T00:02:48;9.50;99.90
40454;DHT22;26160;51.858;4.398;2023-04-24T00:05:15;9.50;99.90
40454;DHT22;26160;51.858;4.398;2023-04-24T00:07:46;9.50;99.90
40454;DHT22;26160;51.858;4.398;2023-04-24T00:10:12;9.60;99.90
40454;DHT22;26160;51.858;4.398;2023-04-24T00:12:38;9.50;99.90
40454;DHT22;26160;51.858;4.398;2023-04-24T00:15:05;9.50;99.90
40454;DHT22;26160;51.858;4.398;2023-04-24T00:17:31;9.50;99.90
40454;DHT22;26160;51.858;4.398;2023-04-24T00:19:57;9.50;99.90
40454;DHT22;26160;51.858;4.398;2023-04-24T00:22:30;9.50;99.90
40454;DHT22;26160;51.858;4.398;2023-04-24T00:24:56;9.50;99.90
40454;DHT22;26160;51.858;4.398;2023-04-24T00:27:23;9.50;99.90
40454;DHT22;26160;51.858;4.398;2023-04-24T00:29:49;9.60;99.90
40454;DHT22;26160;51.858;4.398;2023-04-24T00:32:15;9.60;99.90
40454;DHT22;26160;51.858;4.398;2023-04-24T00:34:43;9.50;99.90
40454;DHT22;26160;51.858;4.398;2023-04-24T00:37:09;9.50;99.90
40454;DHT22;26160;51.858;4.398;2023-04-24T00:39:35;9.60;99.90
40454;DHT22;26160;51.858;4.398;2023-04-24T00:42:01;9.50;99.90
40454;DHT22;26160;51.858;4.398;2023-04-24T00:44:28;9.50;99.90
40454;DHT22;26160;51.858;4.398;2023-04-24T00:46:54;9.50;99.90
40454;DHT22;26160;51.858;4.398;2023-04-24T00:49:21;9.50;99.90
40454;DHT22;26160;51.858;4.398;2023-04-24T00:51:48;9.50;99.90
40454;DHT22;26160;51.858;4.398;2023-04-24T00:54:15;9.50;99.90
40454;DHT22;26160;51.858;4.398;2023-04-24T00:56:42;9.50;99.90
40454;DHT22;26160;51.858;4.398;2023-04-24T00:59:10;9.50;99.90
40454;DHT22;26160;51.858;4.398;2023-04-24T01:01:40;9.50;99.90
40454;DHT22;26160;51.858;4.398;2023-04-24T01:04:06;9.50;99.90
40454;DHT22;26160;51.858;4.398;2023-04-24T01:06:34;9.50;99.90
40454;DHT22;26160;51.858;4.398;2023-04-24T01:09:00;9.40;99.90
40454;DHT22;26160;51.858;4.398;2023-04-24T01:11:26;9.50;99.90
40454;DHT22;26160;51.858;4.398;2023-04-24T01:13:52;9.50;99.90
40454;DHT22;26160;51.858;4.398;2023-04-24T01:16:19;9.50;99.90
40454;DHT22;26160;51.858;4.398;2023-04-24T01:18:47;9.50;99.90
40454;DHT22;26160;51.858;4.398;2023-04-24T01:21:15;9.50;99.90
40454;DHT22;26160;51.858;4.398;2023-04-24T01:23:44;9.50;99.90
40454;DHT22;26160;51.858;4.398;2023-04-24T01:26:11;9.50;99.90
40454;DHT22;26160;51.858;4.398;2023-04-24T01:28:37;9.50;99.90
40454;DHT22;26160;51.858;4.398;2023-04-24T01:31:03;9.50;99.90
40454;DHT22;26160;51.858;4.398;2023-04-24T01:33:29;9.50;99.90
40454;DHT22;26160;51.858;4.398;2023-04-24T01:35:55;9.40;99.90
40454;DHT22;26160;51.858;4.398;2023-04-24T01:38:22;9.50;99.90
40454;DHT22;26160;51.858;4.398;2023-04-24T01:40:49;9.50;99.90
40454;DHT22;26160;51.858;4.398;2023-04-24T01:43:16;9.50;99.90
40454;DHT22;26160;51.858;4.398;2023-04-24T01:45:42;9.50;99.90
40454;DHT22;26160;51.858;4.398;2023-04-24T01:48:08;9.50;99.90
40454;DHT22;26160;51.858;4.398;2023-04-24T01:50:34;9.60;99.90
40454;DHT22;26160;51.858;4.398;2023-04-24T01:53:00;9.60;99.90
40454;DHT22;26160;51.858;4.398;2023-04-24T01:55:27;9.60;99.90
40454;DHT22;26160;51.858;4.398;2023-04-24T01:57:55;9.60;99.90
40454;DHT22;26160;51.858;4.398;2023-04-24T02:00:22;9.60;99.90
40454;DHT22;26160;51.858;4.398;2023-04-24T02:02:48;9.60;99.90
40454;DHT22;26160;51.858;4.398;2023-04-24T02:05:14;9.60;99.90
40454;DHT22;26160;51.858;4.398;2023-04-24T02:07:40;9.60;99.90
40454;DHT22;26160;51.858;4.398;2023-04-24T02:10:07;9.60;99.90
40454;DHT22;26160;51.858;4.398;2023-04-24T02:12:33;9.50;99.90
40454;DHT22;26160;51.858;4.398;2023-04-24T02:14:59;9.50;99.90
40454;DHT22;26160;51.858;4.398;2023-04-24T02:17:25;9.50;99.90
40454;DHT22;26160;51.858;4.398;2023-04-24T02:19:51;9.50;99.90
40454;DHT22;26160;51.858;4.398;2023-04-24T02:22:17;9.50;99.90
40454;DHT22;26160;51.858;4.398;2023-04-24T02:24:44;9.50;99.90
40454;DHT22;26160;51.858;4.398;2023-04-24T02:27:10;9.50;99.90
40454;DHT22;26160;51.858;4.398;2023-04-24T02:29:37;9.50;99.90
40454;DHT22;26160;51.858;4.398;2023-04-24T02:32:03;9.50;99.90
40454;DHT22;26160;51.858;4.398;2023-04-24T02:34:29;9.50;99.90
40454;DHT22;26160;51.858;4.398;2023-04-24T02:36:56;9.40;99.90
40454;DHT22;26160;51.858;4.398;2023-04-24T02:39:22;9.40;99.90
40454;DHT22;26160;51.858;4.398;2023-04-24T02:41:48;9.40;99.90
40454;DHT22;26160;51.858;4.398;2023-04-24T02:44:14;9.40;99.90
40454;DHT22;26160;51.858;4.398;2023-04-24T02:46:41;9.40;99.90
40454;DHT22;26160;51.858;4.398;2023-04-24T02:49:07;9.40;99.90
40454;DHT22;26160;51.858;4.398;2023-04-24T02:51:33;9.40;99.90
40454;DHT22;26160;51.858;4.398;2023-04-24T02:53:59;9.40;99.90
40454;DHT22;26160;51.858;4.398;2023-04-24T02:56:25;9.40;99.90
40454;DHT22;26160;51.858;4.398;2023-04-24T02:58:51;9.40;99.90
40454;DHT22;26160;51.858;4.398;2023-04-24T03:01:18;9.20;99.90
40454;DHT22;26160;51.858;4.398;2023-04-24T03:03:44;9.20;99.90
40454;DHT22;26160;51.858;4.398;2023-04-24T03:06:10;9.20;99.90
40454;DHT22;26160;51.858;4.398;2023-04-24T03:08:36;9.20;99.90
40454;DHT22;26160;51.858;4.398;2023-04-24T03:11:02;9.10;99.90
40454;DHT22;26160;51.858;4.398;2023-04-24T03:13:28;9.10;99.90
40454;DHT22;26160;51.858;4.398;2023-04-24T03:15:55;9.10;99.90
40454;DHT22;26160;51.858;4.398;2023-04-24T03:18:21;9.10;99.90
40454;DHT22;26160;51.858;4.398;2023-04-24T03:20:47;9.10;99.90
40454;DHT22;26160;51.858;4.398;2023-04-24T03:23:13;9.10;99.90
40454;DHT22;26160;51.858;4.398;2023-04-24T03:25:39;9.10;99.90
40454;DHT22;26160;51.858;4.398;2023-04-24T03:28:06;9.00;99.90
40454;DHT22;26160;51.858;4.398;2023-04-24T03:30:32;9.00;99.90
40454;DHT22;26160;51.858;4.398;2023-04-24T03:32:58;9.00;99.90
40454;DHT22;26160;51.858;4.398;2023-04-24T03:35:24;9.10;99.90
40454;DHT22;26160;51.858;4.398;2023-04-24T03:37:51;9.10;99.90
40454;DHT22;26160;51.858;4.398;2023-04-24T03:40:17;9.10;99.90
40454;DHT22;26160;51.858;4.398;2023-04-24T03:42:43;9.10;99.90
40454;DHT22;26160;51.858;4.398;2023-04-24T03:45:09;9.20;99.90
40454;DHT22;26160;51.858;4.398;2023-04-24T03:47:35;9.20;99.90
40454;DHT22;26160;51.858;4.398;2023-04-24T03:50:01;9.30;99.90
40454;DHT22;26160;51.858;4.398;2023-04-24T03:52:28;9.30;99.90
40454;DHT22;26160;51.858;4.398;2023-04-24T03:54:54;9.30;99.90
40454;DHT22;26160;51.858;4.398;2023-04-24T03:57:21;9.30;99.90
40454;DHT22;26160;51.858;4.398;2023-04-24T03:59:47;9.40;99.90
40454;DHT22;26160;51.858;4.398;2023-04-24T04:02:13;9.40;99.90
40454;DHT22;26160;51.858;4.398;2023-04-24T04:04:41;9.40;99.90
40454;DHT22;26160;51.858;4.398;2023-04-24T04:07:07;9.30;99.90
40454;DHT22;26160;51.858;4.398;2023-04-24T04:09:33;9.30;99.90
40454;DHT22;26160;51.858;4.398;2023-04-24T04:11:59;9.30;99.90
40454;DHT22;26160;51.858;4.398;2023-04-24T04:14:27;9.30;99.90
40454;DHT22;26160;51.858;4.398;2023-04-24T04:16:53;9.20;99.90
40454;DHT22;26160;51.858;4.398;2023-04-24T04:19:19;9.20;99.90
40454;DHT22;26160;51.858;4.398;2023-04-24T04:21:45;9.10;99.90
40454;DHT22;26160;51.858;4.398;2023-04-24T04:24:11;9.10;99.90
40454;DHT22;26160;51.858;4.398;2023-04-24T04:26:38;9.10;99.90
40454;DHT22;26160;51.858;4.398;2023-04-24T04:29:04;9.00;99.90
40454;DHT22;26160;51.858;4.398;2023-04-24T04:31:32;9.00;99.90
40454;DHT22;26160;51.858;4.398;2023-04-24T04:33:58;8.90;99.90
40454;DHT22;26160;51.858;4.398;2023-04-24T04:36:24;8.80;99.90
40454;DHT22;26160;51.858;4.398;2023-04-24T04:38:51;8.80;99.90
40454;DHT22;26160;51.858;4.398;2023-04-24T04:41:17;8.80;99.90
40454;DHT22;26160;51.858;4.398;2023-04-24T04:43:44;8.70;99.90
40454;DHT22;26160;51.858;4.398;2023-04-24T04:46:10;8.70;99.90
40454;DHT22;26160;51.858;4.398;2023-04-24T04:48:36;8.70;99.90
40454;DHT22;26160;51.858;4.398;2023-04-24T04:51:03;8.70;99.90
40454;DHT22;26160;51.858;4.398;2023-04-24T04:53:30;8.70;99.90
40454;DHT22;26160;51.858;4.398;2023-04-24T04:55:56;8.70;99.90
40454;DHT22;26160;51.858;4.398;2023-04-24T04:58:22;8.60;99.90
40454;DHT22;26160;51.858;4.398;2023-04-24T05:00:48;8.60;99.90
40454;DHT22;26160;51.858;4.398;2023-04-24T05:03:16;8.50;99.90
40454;DHT22;26160;51.858;4.398;2023-04-24T05:05:42;8.50;99.90
40454;DHT22;26160;51.858;4.398;2023-04-24T05:08:08;8.50;99.90
40454;DHT22;26160;51.858;4.398;2023-04-24T05:10:34;8.50;99.90
40454;DHT22;26160;51.858;4.398;2023-04-24T05:13:03;8.50;99.90
40454;DHT22;26160;51.858;4.398;2023-04-24T05:15:30;8.40;99.90
40454;DHT22;26160;51.858;4.398;2023-04-24T05:17:56;8.40;99.90
40454;DHT22;26160;51.858;4.398;2023-04-24T05:20:23;8.40;99.90
40454;DHT22;26160;51.858;4.398;2023-04-24T05:22:49;8.30;99.90
40454;DHT22;26160;51.858;4.398;2023-04-24T05:25:19;8.40;99.90
40454;DHT22;26160;51.858;4.398;2023-04-24T05:27:45;8.40;99.90
40454;DHT22;26160;51.858;4.398;2023-04-24T05:30:12;8.40;99.90
40454;DHT22;26160;51.858;4.398;2023-04-24T05:32:38;8.40;99.90
40454;DHT22;26160;51.858;4.398;2023-04-24T05:35:05;8.40;99.90
40454;DHT22;26160;51.858;4.398;2023-04-24T05:37:31;8.50;99.90
40454;DHT22;26160;51.858;4.398;2023-04-24T05:39:57;8.50;99.90
40454;DHT22;26160;51.858;4.398;2023-04-24T05:42:24;8.50;99.90
40454;DHT22;26160;51.858;4.398;2023-04-24T05:44:50;8.50;99.90
40454;DHT22;26160;51.858;4.398;2023-04-24T05:47:16;8.50;99.90
40454;DHT22;26160;51.858;4.398;2023-04-24T05:49:42;8.50;99.90
40454;DHT22;26160;51.858;4.398;2023-04-24T05:52:08;8.50;99.90
40454;DHT22;26160;51.858;4.398;2023-04-24T05:54:35;8.50;99.90
40454;DHT22;26160;51.858;4.398;2023-04-24T05:57:01;8.50;99.90
40454;DHT22;26160;51.858;4.398;2023-04-24T05:59:38;8.50;99.90
40454;DHT22;26160;51.858;4.398;2023-04-24T06:02:05;8.50;99.90
40454;DHT22;26160;51.858;4.398;2023-04-24T06:04:32;8.50;99.90
40454;DHT22;26160;51.858;4.398;2023-04-24T06:06:58;8.50;99.90
40454;DHT22;26160;51.858;4.398;2023-04-24T06:09:25;8.40;99.90
40454;DHT22;26160;51.858;4.398;2023-04-24T06:11:51;8.40;99.90
40454;DHT22;26160;51.858;4.398;2023-04-24T06:14:20;8.40;99.90
40454;DHT22;26160;51.858;4.398;2023-04-24T06:16:46;8.40;99.90
40454;DHT22;26160;51.858;4.398;2023-04-24T06:19:13;8.40;99.90
40454;DHT22;26160;51.858;4.398;2023-04-24T06:21:39;8.40;99.90
40454;DHT22;26160;51.858;4.398;2023-04-24T06:24:05;8.40;99.90
40454;DHT22;26160;51.858;4.398;2023-04-24T06:26:31;8.50;99.90
40454;DHT22;26160;51.858;4.398;2023-04-24T06:28:57;8.50;99.90
40454;DHT22;26160;51.858;4.398;2023-04-24T06:31:25;8.50;99.90
40454;DHT22;26160;51.858;4.398;2023-04-24T06:33:51;8.50;99.90
40454;DHT22;26160;51.858;4.398;2023-04-24T06:36:17;8.50;99.90
40454;DHT22;26160;51.858;4.398;2023-04-24T06:38:43;8.50;99.90
40454;DHT22;26160;51.858;4.398;2023-04-24T06:41:10;8.50;99.90
40454;DHT22;26160;51.858;4.398;2023-04-24T06:43:36;8.60;99.90
40454;DHT22;26160;51.858;4.398;2023-04-24T06:46:02;8.60;99.90
40454;DHT22;26160;51.858;4.398;2023-04-24T06:48:29;8.60;99.90
40454;DHT22;26160;51.858;4.398;2023-04-24T06:50:55;8.70;99.90
40454;DHT22;26160;51.858;4.398;2023-04-24T06:53:21;8.80;99.90
40454;DHT22;26160;51.858;4.398;2023-04-24T06:55:47;8.80;99.90
40454;DHT22;26160;51.858;4.398;2023-04-24T06:58:14;8.70;99.90
40454;DHT22;26160;51.858;4.398;2023-04-24T07:00:41;8.80;99.90
40454;DHT22;26160;51.858;4.398;2023-04-24T07:03:07;8.80;99.90
40454;DHT22;26160;51.858;4.398;2023-04-24T07:05:33;8.90;99.90
40454;DHT22;26160;51.858;4.398;2023-04-24T07:08:01;8.80;99.90
40454;DHT22;26160;51.858;4.398;2023-04-24T07:10:27;8.90;99.90
40454;DHT22;26160;51.858;4.398;2023-04-24T07:12:55;8.80;99.90
40454;DHT22;26160;51.858;4.398;2023-04-24T07:15:22;8.80;99.90
40454;DHT22;26160;51.858;4.398;2023-04-24T07:17:49;8.90;99.90
40454;DHT22;26160;51.858;4.398;2023-04-24T07:20:15;9.00;99.90
40454;DHT22;26160;51.858;4.398;2023-04-24T07:22:43;9.00;99.90
40454;DHT22;26160;51.858;4.398;2023-04-24T07:25:09;9.00;99.90
40454;DHT22;26160;51.858;4.398;2023-04-24T07:27:35;9.00;99.90
40454;DHT22;26160;51.858;4.398;2023-04-24T07:30:03;8.90;99.90
40454;DHT22;26160;51.858;4.398;2023-04-24T07:32:30;8.90;99.90
40454;DHT22;26160;51.858;4.398;2023-04-24T07:34:56;9.00;99.90
40454;DHT22;26160;51.858;4.398;2023-04-24T07:37:23;9.10;99.90
40454;DHT22;26160;51.858;4.398;2023-04-24T07:39:50;9.10;99.90
40454;DHT22;26160;51.858;4.398;2023-04-24T07:42:16;9.00;99.90
40454;DHT22;26160;51.858;4.398;2023-04-24T07:44:42;8.90;99.90
40454;DHT22;26160;51.858;4.398;2023-04-24T07:47:08;8.90;99.90
40454;DHT22;26160;51.858;4.398;2023-04-24T07:49:34;8.80;99.90
40454;DHT22;26160;51.858;4.398;2023-04-24T07:52:01;8.80;99.90
40454;DHT22;26160;51.858;4.398;2023-04-24T07:54:28;8.70;99.90
40454;DHT22;26160;51.858;4.398;2023-04-24T07:56:54;8.70;99.90
40454;DHT22;26160;51.858;4.398;2023-04-24T07:59:21;8.60;99.90
40454;DHT22;26160;51.858;4.398;2023-04-24T08:01:47;8.70;99.90
40454;DHT22;26160;51.858;4.398;2023-04-24T08:04:13;8.80;99.90
40454;DHT22;26160;51.858;4.398;2023-04-24T08:06:39;8.90;99.90
40454;DHT22;26160;51.858;4.398;2023-04-24T08:09:05;9.00;99.90
40454;DHT22;26160;51.858;4.398;2023-04-24T08:11:31;9.10;99.90
40454;DHT22;26160;51.858;4.398;2023-04-24T08:13:58;9.20;99.90
40454;DHT22;26160;51.858;4.398;2023-04-24T08:16:24;9.30;99.90
40454;DHT22;26160;51.858;4.398;2023-04-24T08:18:50;9.40;99.90
40454;DHT22;26160;51.858;4.398;2023-04-24T08:21:16;9.60;99.90
40454;DHT22;26160;51.858;4.398;2023-04-24T08:23:47;9.50;99.90
40454;DHT22;26160;51.858;4.398;2023-04-24T08:26:13;9.40;99.90
40454;DHT22;26160;51.858;4.398;2023-04-24T08:28:39;9.30;99.90
40454;DHT22;26160;51.858;4.398;2023-04-24T08:31:06;9.40;99.90
40454;DHT22;26160;51.858;4.398;2023-04-24T08:33:32;9.20;99.90
40454;DHT22;26160;51.858;4.398;2023-04-24T08:36:04;9.10;99.90
40454;DHT22;26160;51.858;4.398;2023-04-24T08:38:31;9.00;99.90
40454;DHT22;26160;51.858;4.398;2023-04-24T08:41:01;8.90;99.90
40454;DHT22;26160;51.858;4.398;2023-04-24T08:43:27;9.00;99.90
40454;DHT22;26160;51.858;4.398;2023-04-24T08:45:56;9.10;99.90
40454;DHT22;26160;51.858;4.398;2023-04-24T08:48:22;9.20;99.90
40454;DHT22;26160;51.858;4.398;2023-04-24T08:50:50;9.30;99.90
40454;DHT22;26160;51.858;4.398;2023-04-24T08:53:18;9.30;99.90
40454;DHT22;26160;51.858;4.398;2023-04-24T08:55:47;9.30;99.90
40454;DHT22;26160;51.858;4.398;2023-04-24T08:58:15;9.30;99.90
40454;DHT22;26160;51.858;4.398;2023-04-24T09:00:42;9.40;99.90
40454;DHT22;26160;51.858;4.398;2023-04-24T09:03:22;9.40;99.90
40454;DHT22;26160;51.858;4.398;2023-04-24T09:05:48;9.50;99.90
40454;DHT22;26160;51.858;4.398;2023-04-24T09:08:18;9.70;99.90
40454;DHT22;26160;51.858;4.398;2023-04-24T09:10:44;9.70;99.90
40454;DHT22;26160;51.858;4.398;2023-04-24T09:13:10;9.60;99.90
40454;DHT22;26160;51.858;4.398;2023-04-24T09:15:39;9.30;99.90
40454;DHT22;26160;51.858;4.398;2023-04-24T09:18:06;9.00;99.90
40454;DHT22;26160;51.858;4.398;2023-04-24T09:20:33;9.00;99.90
40454;DHT22;26160;51.858;4.398;2023-04-24T09:22:59;9.20;99.90
40454;DHT22;26160;51.858;4.398;2023-04-24T09:25:31;9.40;99.90
40454;DHT22;26160;51.858;4.398;2023-04-24T09:28:01;9.50;99.90
40454;DHT22;26160;51.858;4.398;2023-04-24T09:30:29;9.80;99.90
40454;DHT22;26160;51.858;4.398;2023-04-24T09:33:12;9.90;99.90
40454;DHT22;26160;51.858;4.398;2023-04-24T09:35:42;10.10;99.90
40454;DHT22;26160;51.858;4.398;2023-04-24T09:38:14;9.80;99.90
40454;DHT22;26160;51.858;4.398;2023-04-24T09:40:40;9.60;99.90
40454;DHT22;26160;51.858;4.398;2023-04-24T09:43:10;9.40;99.90
40454;DHT22;26160;51.858;4.398;2023-04-24T09:45:39;9.10;99.90
40454;DHT22;26160;51.858;4.398;2023-04-24T09:48:08;9.10;99.90
40454;DHT22;26160;51.858;4.398;2023-04-24T09:50:34;9.10;99.90
40454;DHT22;26160;51.858;4.398;2023-04-24T09:53:03;9.30;99.90
40454;DHT22;26160;51.858;4.398;2023-04-24T09:55:30;9.60;99.90
40454;DHT22;26160;51.858;4.398;2023-04-24T09:57:58;9.90;99.90
40454;DHT22;26160;51.858;4.398;2023-04-24T10:00:28;10.20;99.90
40454;DHT22;26160;51.858;4.398;2023-04-24T10:02:59;10.60;99.90
40454;DHT22;26160;51.858;4.398;2023-04-24T10:05:32;11.00;99.90
40454;DHT22;26160;51.858;4.398;2023-04-24T10:08:07;11.20;99.90
40454;DHT22;26160;51.858;4.398;2023-04-24T10:10:35;11.30;99.90
40454;DHT22;26160;51.858;4.398;2023-04-24T10:13:03;10.90;99.90
40454;DHT22;26160;51.858;4.398;2023-04-24T10:15:30;10.30;99.90
40454;DHT22;26160;51.858;4.398;2023-04-24T10:17:58;10.10;99.90
40454;DHT22;26160;51.858;4.398;2023-04-24T10:20:28;10.00;99.90
40454;DHT22;26160;51.858;4.398;2023-04-24T10:22:57;10.00;99.90
40454;DHT22;26160;51.858;4.398;2023-04-24T10:25:27;10.00;99.90
40454;DHT22;26160;51.858;4.398;2023-04-24T10:27:54;9.90;99.90
40454;DHT22;26160;51.858;4.398;2023-04-24T10:30:33;9.80;99.90
40454;DHT22;26160;51.858;4.398;2023-04-24T10:33:03;9.80;99.90
40454;DHT22;26160;51.858;4.398;2023-04-24T10:35:36;9.90;99.90
40454;DHT22;26160;51.858;4.398;2023-04-24T10:38:09;10.10;99.90
40454;DHT22;26160;51.858;4.398;2023-04-24T10:40:36;10.40;99.90
40454;DHT22;26160;51.858;4.398;2023-04-24T10:43:04;10.60;99.90
40454;DHT22;26160;51.858;4.398;2023-04-24T10:45:32;10.90;99.90
40454;DHT22;26160;51.858;4.398;2023-04-24T10:50:34;11.40;99.90
40454;DHT22;26160;51.858;4.398;2023-04-24T10:53:12;11.40;99.90
40454;DHT22;26160;51.858;4.398;2023-04-24T10:58:09;11.00;99.90
40454;DHT22;26160;51.858;4.398;2023-04-24T11:00:40;11.20;99.90
40454;DHT22;26160;51.858;4.398;2023-04-24T11:03:27;11.40;99.90
40454;DHT22;26160;51.858;4.398;2023-04-24T11:05:58;11.00;99.90
40454;DHT22;26160;51.858;4.398;2023-04-24T11:08:29;10.70;99.90
40454;DHT22;26160;51.858;4.398;2023-04-24T11:11:03;10.50;99.90
40454;DHT22;26160;51.858;4.398;2023-04-24T11:16:23;9.90;99.90
40454;DHT22;26160;51.858;4.398;2023-04-24T11:19:05;9.50;99.90
40454;DHT22;26160;51.858;4.398;2023-04-24T11:32:34;9.40;99.90
40454;DHT22;26160;51.858;4.398;2023-04-24T11:35:15;9.60;99.90
40454;DHT22;26160;51.858;4.398;2023-04-24T11:37:44;9.80;99.90
40454;DHT22;26160;51.858;4.398;2023-04-24T11:40:15;10.30;99.90
40454;DHT22;26160;51.858;4.398;2023-04-24T11:42:52;10.50;99.90
40454;DHT22;26160;51.858;4.398;2023-04-24T11:45:22;10.40;99.90
40454;DHT22;26160;51.858;4.398;2023-04-24T11:47:48;10.30;99.90
40454;DHT22;26160;51.858;4.398;2023-04-24T11:50:16;10.50;99.90
40454;DHT22;26160;51.858;4.398;2023-04-24T11:52:45;10.80;99.90
40454;DHT22;26160;51.858;4.398;2023-04-24T11:57:42;11.20;99.90
40454;DHT22;26160;51.858;4.398;2023-04-24T12:00:16;11.60;99.90
40454;DHT22;26160;51.858;4.398;2023-04-24T12:02:43;11.70;99.90
40454;DHT22;26160;51.858;4.398;2023-04-24T12:05:09;11.40;99.90
40454;DHT22;26160;51.858;4.398;2023-04-24T12:07:42;11.20;99.90
40454;DHT22;26160;51.858;4.398;2023-04-24T12:10:08;11.00;99.90
40454;DHT22;26160;51.858;4.398;2023-04-24T12:12:35;10.70;99.90
40454;DHT22;26160;51.858;4.398;2023-04-24T12:15:01;10.50;99.90
40454;DHT22;26160;51.858;4.398;2023-04-24T12:17:30;10.50;99.90
40454;DHT22;26160;51.858;4.398;2023-04-24T12:20:01;10.30;99.90
40454;DHT22;26160;51.858;4.398;2023-04-24T12:22:42;10.40;99.90
40454;DHT22;26160;51.858;4.398;2023-04-24T12:25:10;10.80;99.90
40454;DHT22;26160;51.858;4.398;2023-04-24T12:27:36;11.00;99.90
40454;DHT22;26160;51.858;4.398;2023-04-24T12:30:05;11.30;99.90
40454;DHT22;26160;51.858;4.398;2023-04-24T12:32:31;11.80;99.90
40454;DHT22;26160;51.858;4.398;2023-04-24T12:34:58;11.90;99.90
40454;DHT22;26160;51.858;4.398;2023-04-24T12:37:26;12.10;99.90
40454;DHT22;26160;51.858;4.398;2023-04-24T12:40:08;12.00;99.90
40454;DHT22;26160;51.858;4.398;2023-04-24T12:42:36;11.70;99.90
40454;DHT22;26160;51.858;4.398;2023-04-24T12:45:07;11.20;99.90
40454;DHT22;26160;51.858;4.398;2023-04-24T12:47:34;11.40;99.90
40454;DHT22;26160;51.858;4.398;2023-04-24T12:50:01;11.80;99.90
40454;DHT22;26160;51.858;4.398;2023-04-24T12:52:29;11.90;99.90
40454;DHT22;26160;51.858;4.398;2023-04-24T12:54:58;11.70;99.90
40454;DHT22;26160;51.858;4.398;2023-04-24T12:57:29;11.70;99.90
40454;DHT22;26160;51.858;4.398;2023-04-24T12:59:57;11.40;99.90
40454;DHT22;26160;51.858;4.398;2023-04-24T13:02:25;11.70;99.90
40454;DHT22;26160;51.858;4.398;2023-04-24T13:04:53;12.10;99.90
40454;DHT22;26160;51.858;4.398;2023-04-24T13:07:20;12.50;99.90
40454;DHT22;26160;51.858;4.398;2023-04-24T13:09:48;12.40;99.90
40454;DHT22;26160;51.858;4.398;2023-04-24T13:12:14;12.10;99.90
40454;DHT22;26160;51.858;4.398;2023-04-24T13:14:41;12.70;99.90
40454;DHT22;26160;51.858;4.398;2023-04-24T13:17:07;13.00;99.90
40454;DHT22;26160;51.858;4.398;2023-04-24T13:19:38;13.20;99.90
40454;DHT22;26160;51.858;4.398;2023-04-24T13:22:05;13.40;99.90
40454;DHT22;26160;51.858;4.398;2023-04-24T13:24:32;13.30;99.90
40454;DHT22;26160;51.858;4.398;2023-04-24T13:26:59;12.60;99.90
40454;DHT22;26160;51.858;4.398;2023-04-24T13:29:26;11.80;99.90
40454;DHT22;26160;51.858;4.398;2023-04-24T13:31:54;10.50;99.90
40454;DHT22;26160;51.858;4.398;2023-04-24T13:34:24;9.90;99.90
40454;DHT22;26160;51.858;4.398;2023-04-24T13:36:52;9.80;99.90
40454;DHT22;26160;51.858;4.398;2023-04-24T13:39:18;9.60;99.90
40454;DHT22;26160;51.858;4.398;2023-04-24T13:41:44;9.50;99.90
40454;DHT22;26160;51.858;4.398;2023-04-24T13:44:13;9.50;99.90
40454;DHT22;26160;51.858;4.398;2023-04-24T13:46:39;9.60;99.90
40454;DHT22;26160;51.858;4.398;2023-04-24T13:49:05;10.00;99.90
40454;DHT22;26160;51.858;4.398;2023-04-24T13:51:32;10.70;99.90
40454;DHT22;26160;51.858;4.398;2023-04-24T13:53:58;11.20;99.90
40454;DHT22;26160;51.858;4.398;2023-04-24T13:56:25;11.30;99.90
40454;DHT22;26160;51.858;4.398;2023-04-24T13:58:52;11.30;99.90
40454;DHT22;26160;51.858;4.398;2023-04-24T14:01:19;11.10;99.90
40454;DHT22;26160;51.858;4.398;2023-04-24T14:03:50;10.70;99.90
40454;DHT22;26160;51.858;4.398;2023-04-24T14:06:18;10.50;99.90
40454;DHT22;26160;51.858;4.398;2023-04-24T14:08:44;10.20;99.90
40454;DHT22;26160;51.858;4.398;2023-04-24T14:11:10;9.90;99.90
40454;DHT22;26160;51.858;4.398;2023-04-24T14:13:37;9.80;99.90
40454;DHT22;26160;51.858;4.398;2023-04-24T14:16:04;10.00;99.90
40454;DHT22;26160;51.858;4.398;2023-04-24T14:18:30;10.30;99.90
40454;DHT22;26160;51.858;4.398;2023-04-24T14:20:56;10.60;99.90
40454;DHT22;26160;51.858;4.398;2023-04-24T14:23:22;10.70;99.90
40454;DHT22;26160;51.858;4.398;2023-04-24T14:25:49;10.60;99.90
40454;DHT22;26160;51.858;4.398;2023-04-24T14:28:19;10.40;99.90
40454;DHT22;26160;51.858;4.398;2023-04-24T14:30:45;10.50;99.90
40454;DHT22;26160;51.858;4.398;2023-04-24T14:33:11;10.80;99.90
40454;DHT22;26160;51.858;4.398;2023-04-24T14:35:40;11.10;99.90
40454;DHT22;26160;51.858;4.398;2023-04-24T14:38:07;11.40;99.90
40454;DHT22;26160;51.858;4.398;2023-04-24T14:40:34;11.70;99.90
40454;DHT22;26160;51.858;4.398;2023-04-24T14:43:00;11.90;99.90
40454;DHT22;26160;51.858;4.398;2023-04-24T14:45:26;11.80;99.90
40454;DHT22;26160;51.858;4.398;2023-04-24T14:47:53;11.60;99.90
40454;DHT22;26160;51.858;4.398;2023-04-24T14:50:20;11.70;99.90
40454;DHT22;26160;51.858;4.398;2023-04-24T14:52:46;11.50;99.90
40454;DHT22;26160;51.858;4.398;2023-04-24T14:55:12;11.60;99.90
40454;DHT22;26160;51.858;4.398;2023-04-24T14:57:39;11.30;99.90
40454;DHT22;26160;51.858;4.398;2023-04-24T15:00:06;11.50;99.90
40454;DHT22;26160;51.858;4.398;2023-04-24T15:02:34;11.60;99.90
40454;DHT22;26160;51.858;4.398;2023-04-24T15:05:03;11.80;99.90
40454;DHT22;26160;51.858;4.398;2023-04-24T15:07:30;11.60;99.90
40454;DHT22;26160;51.858;4.398;2023-04-24T15:09:56;11.50;99.90
40454;DHT22;26160;51.858;4.398;2023-04-24T15:12:22;11.30;99.90
40454;DHT22;26160;51.858;4.398;2023-04-24T15:14:50;10.90;99.90
40454;DHT22;26160;51.858;4.398;2023-04-24T15:17:16;10.60;99.90
40454;DHT22;26160;51.858;4.398;2023-04-24T15:19:42;10.60;99.90
40454;DHT22;26160;51.858;4.398;2023-04-24T15:22:10;10.70;99.90
40454;DHT22;26160;51.858;4.398;2023-04-24T15:24:36;10.50;99.90
40454;DHT22;26160;51.858;4.398;2023-04-24T15:27:02;10.80;99.90
40454;DHT22;26160;51.858;4.398;2023-04-24T15:29:29;10.80;99.90
40454;DHT22;26160;51.858;4.398;2023-04-24T15:31:55;10.80;99.90
40454;DHT22;26160;51.858;4.398;2023-04-24T15:34:21;10.90;99.90
40454;DHT22;26160;51.858;4.398;2023-04-24T15:36:47;11.20;99.90
40454;DHT22;26160;51.858;4.398;2023-04-24T15:39:13;11.40;99.90
40454;DHT22;26160;51.858;4.398;2023-04-24T15:41:39;11.30;99.90
40454;DHT22;26160;51.858;4.398;2023-04-24T15:44:05;11.30;99.90
40454;DHT22;26160;51.858;4.398;2023-04-24T15:46:34;11.40;99.90
40454;DHT22;26160;51.858;4.398;2023-04-24T15:49:00;11.30;99.90
40454;DHT22;26160;51.858;4.398;2023-04-24T15:51:26;11.70;99.90
40454;DHT22;26160;51.858;4.398;2023-04-24T15:53:52;12.00;99.90
40454;DHT22;26160;51.858;4.398;2023-04-24T15:56:18;11.70;99.90
40454;DHT22;26160;51.858;4.398;2023-04-24T15:58:45;11.70;99.90
40454;DHT22;26160;51.858;4.398;2023-04-24T16:01:11;11.80;99.90